| time (UTC) | temp F | wind direction | speed MPH | gust MPH | rain 1hr in | rain 24hr in | rain mn in | humidity % | barometer mb |
| 20260507142902 | 82 | 271 | 10.0 | 13.0 | 0.00 | 0.00 | 0.00 | 47 | 1009.8 |
| 20260507142358 | 82 | 289 | 10.0 | 11.0 | 0.00 | 0.00 | 0.00 | 46 | 1009.3 |
| 20260507141855 | 82 | 297 | 12.0 | 15.0 | 0.00 | 0.00 | 0.00 | 45 | 1009.6 |
| 20260507141352 | 82 | 315 | 10.0 | 15.0 | 0.00 | 0.00 | 0.00 | 45 | 1009.5 |
| 20260507140848 | 83 | 285 | 11.0 | 14.0 | 0.00 | 0.00 | 0.00 | 47 | 1009.7 |
| 20260507140345 | 83 | 325 | 15.0 | 17.0 | 0.00 | 0.00 | 0.00 | 43 | 1009.5 |
| 20260507135843 | 82 | 1 | 9.0 | 13.0 | 0.00 | 0.00 | 0.00 | 47 | 1009.6 |
| 20260507135339 | 84 | 289 | 13.0 | 16.0 | 0.00 | 0.00 | 0.00 | 46 | 1009.7 |
| 20260507134837 | 85 | 278 | 11.0 | 13.0 | 0.00 | 0.00 | 0.00 | 41 | 1009.7 |
| 20260507134333 | 87 | 277 | 9.0 | 15.0 | 0.00 | 0.00 | 0.00 | 40 | 1009.6 |
| 20260507133829 | 88 | 336 | 15.0 | 17.0 | 0.00 | 0.00 | 0.00 | 28 | 1009.6 |
| 20260507133324 | 89 | 346 | 15.0 | 17.0 | 0.00 | 0.00 | 0.00 | 24 | 1009.6 |
| 20260507132824 | 89 | 359 | 16.0 | 18.0 | 0.00 | 0.00 | 0.00 | 23 | 1009.5 |
| 20260507132319 | 89 | 325 | 14.0 | 15.0 | 0.00 | 0.00 | 0.00 | 23 | 1009.7 |
| 20260507131817 | 89 | 348 | 16.0 | 21.0 | 0.00 | 0.00 | 0.00 | 23 | 1009.7 |
| 20260507131313 | 89 | 342 | 14.0 | 18.0 | 0.00 | 0.00 | 0.00 | 24 | 1009.7 |
| 20260507130810 | 88 | 344 | 15.0 | 17.0 | 0.00 | 0.00 | 0.00 | 25 | 1009.7 |
| 20260507130308 | 89 | 335 | 16.0 | 22.0 | 0.00 | 0.00 | 0.00 | 25 | 1009.8 |
| 20260507125806 | 88 | 336 | 12.0 | 21.0 | 0.00 | 0.00 | 0.00 | 26 | 1009.8 |
| 20260507125306 | 88 | 341 | 15.0 | 18.0 | 0.00 | 0.00 | 0.00 | 25 | 1009.9 |
| 20260507124800 | 88 | 344 | 17.0 | 21.0 | 0.00 | 0.00 | 0.00 | 26 | 1010.0 |
| 20260507124257 | 88 | 346 | 19.0 | 24.0 | 0.00 | 0.00 | 0.00 | 26 | 1009.9 |
| 20260507123755 | 87 | 355 | 18.0 | 22.0 | 0.00 | 0.00 | 0.00 | 25 | 1010.1 |
| 20260507123252 | 88 | 345 | 22.0 | 26.0 | 0.00 | 0.00 | 0.00 | 25 | 1010.1 |
| 20260507122748 | 88 | 343 | 20.0 | 24.0 | 0.00 | 0.00 | 0.00 | 25 | 1010.1 |
| 20260507122243 | 88 | 350 | 18.0 | 22.0 | 0.00 | 0.00 | 0.00 | 25 | 1010.2 |
| 20260507121739 | 87 | 318 | 14.0 | 19.0 | 0.00 | 0.00 | 0.00 | 26 | 1010.2 |
| 20260507121236 | 87 | 345 | 18.0 | 22.0 | 0.00 | 0.00 | 0.00 | 27 | 1010.3 |
| 20260507120732 | 87 | 0 | 18.0 | 21.0 | 0.00 | 0.00 | 0.00 | 26 | 1010.3 |
| 20260507120229 | 87 | 0 | 21.0 | 23.0 | 0.00 | 0.00 | 0.00 | 26 | 1010.4 |
| 20260507115725 | 86 | 345 | 13.0 | 22.0 | 0.00 | 0.00 | 0.00 | 26 | 1010.4 |
| 20260507115221 | 87 | 314 | 16.0 | 19.0 | 0.00 | 0.00 | 0.00 | 26 | 1010.2 |
| 20260507114717 | 86 | 311 | 9.0 | 15.0 | 0.00 | 0.00 | 0.00 | 28 | 1010.5 |
| 20260507114215 | 87 | 326 | 14.0 | 18.0 | 0.00 | 0.00 | 0.00 | 28 | 1010.6 |
| 20260507113712 | 86 | 340 | 15.0 | 19.0 | 0.00 | 0.00 | 0.00 | 26 | 1010.6 |
| 20260507113209 | 85 | 329 | 12.0 | 15.0 | 0.00 | 0.00 | 0.00 | 28 | 1010.8 |
| 20260507112706 | 86 | 329 | 19.0 | 22.0 | 0.00 | 0.00 | 0.00 | 27 | 1010.7 |
| 20260507112203 | 86 | 348 | 15.0 | 24.0 | 0.00 | 0.00 | 0.00 | 27 | 1010.9 |
| 20260507111700 | 86 | 351 | 15.0 | 17.0 | 0.00 | 0.00 | 0.00 | 26 | 1010.7 |
| 20260507111157 | 85 | 334 | 17.0 | 22.0 | 0.00 | 0.00 | 0.00 | 28 | 1011.0 |
| 20260507110652 | 85 | 355 | 16.0 | 18.0 | 0.00 | 0.00 | 0.00 | 29 | 1011.0 |
| 20260507110149 | 86 | 337 | 17.0 | 21.0 | 0.00 | 0.00 | 0.00 | 29 | 1011.0 |
| 20260507105646 | 85 | 359 | 18.0 | 21.0 | 0.00 | 0.00 | 0.00 | 29 | 1011.0 |
| 20260507105142 | 85 | 339 | 18.0 | 24.0 | 0.00 | 0.00 | 0.00 | 29 | 1011.1 |
| 20260507104640 | 85 | 354 | 12.0 | 19.0 | 0.00 | 0.00 | 0.00 | 28 | 1011.0 |
| 20260507104136 | 85 | 331 | 15.0 | 23.0 | 0.00 | 0.00 | 0.00 | 28 | 1011.1 |
| 20260507103632 | 85 | 348 | 17.0 | 21.0 | 0.00 | 0.00 | 0.00 | 29 | 1011.3 |
| 20260507103129 | 85 | 334 | 20.0 | 22.0 | 0.00 | 0.00 | 0.00 | 29 | 1011.2 |
| 20260507102626 | 85 | 353 | 18.0 | 23.0 | 0.00 | 0.00 | 0.00 | 28 | 1011.3 |
| 20260507102122 | 85 | 341 | 17.0 | 24.0 | 0.00 | 0.00 | 0.00 | 29 | 1011.4 |
| 20260507101618 | 85 | 351 | 19.0 | 24.0 | 0.00 | 0.00 | 0.00 | 28 | 1011.3 |
| 20260507101114 | 85 | 344 | 21.0 | 24.0 | 0.00 | 0.00 | 0.00 | 29 | 1011.4 |
| 20260507100611 | 84 | 344 | 22.0 | 26.0 | 0.00 | 0.00 | 0.00 | 30 | 1011.4 |
| 20260507100110 | 84 | 352 | 21.0 | 25.0 | 0.00 | 0.00 | 0.00 | 31 | 1011.2 |
| 20260507095607 | 84 | 340 | 23.0 | 27.0 | 0.00 | 0.00 | 0.00 | 29 | 1011.5 |
| 20260507095103 | 83 | 349 | 25.0 | 29.0 | 0.00 | 0.00 | 0.00 | 31 | 1011.3 |
| 20260507094559 | 83 | 346 | 25.0 | 29.0 | 0.00 | 0.00 | 0.00 | 30 | 1011.5 |
| 20260507094057 | 84 | 351 | 27.0 | 30.0 | 0.00 | 0.00 | 0.00 | 32 | 1011.5 |
| 20260507093554 | 83 | 350 | 24.0 | 31.0 | 0.00 | 0.00 | 0.00 | 33 | 1011.5 |
| 20260507093053 | 83 | 341 | 24.0 | 27.0 | 0.00 | 0.00 | 0.00 | 33 | 1011.4 |
| 20260507092549 | 82 | 1 | 23.0 | 26.0 | 0.00 | 0.00 | 0.00 | 33 | 1011.5 |
| 20260507092046 | 82 | 345 | 25.0 | 27.0 | 0.00 | 0.00 | 0.00 | 32 | 1011.5 |
| 20260507091543 | 82 | 349 | 29.0 | 33.0 | 0.00 | 0.00 | 0.00 | 33 | 1011.4 |
| 20260507091039 | 82 | 348 | 28.0 | 32.0 | 0.00 | 0.00 | 0.00 | 34 | 1011.5 |
| 20260507090534 | 81 | 346 | 29.0 | 32.0 | 0.00 | 0.00 | 0.00 | 31 | 1012.0 |
| 20260507090031 | 81 | 325 | 26.0 | 31.0 | 0.00 | 0.00 | 0.00 | 34 | 1011.8 |
| 20260507085529 | 80 | 341 | 27.0 | 33.0 | 0.00 | 0.00 | 0.00 | 34 | 1011.7 |
| 20260507085025 | 80 | 356 | 26.0 | 32.0 | 0.00 | 0.00 | 0.00 | 34 | 1011.8 |
| 20260507084522 | 80 | 342 | 30.0 | 33.0 | 0.00 | 0.00 | 0.00 | 34 | 1012.2 |
| 20260507084019 | 80 | 340 | 27.0 | 31.0 | 0.00 | 0.00 | 0.00 | 35 | 1011.7 |
| 20260507083515 | 81 | 346 | 32.0 | 36.0 | 0.00 | 0.00 | 0.00 | 33 | 1011.7 |
| 20260507083012 | 80 | 340 | 30.0 | 33.0 | 0.00 | 0.00 | 0.00 | 35 | 1011.9 |
| 20260507082508 | 80 | 346 | 32.0 | 34.0 | 0.00 | 0.00 | 0.00 | 34 | 1012.0 |
| 20260507082004 | 79 | 349 | 31.0 | 39.0 | 0.00 | 0.00 | 0.00 | 34 | 1012.0 |
| 20260507081501 | 79 | 351 | 31.0 | 38.0 | 0.00 | 0.00 | 0.00 | 34 | 1012.3 |
| 20260507080958 | 79 | 345 | 30.0 | 35.0 | 0.00 | 0.00 | 0.00 | 34 | 1012.2 |
| 20260507080453 | 78 | 350 | 32.0 | 35.0 | 0.00 | 0.00 | 0.00 | 36 | 1012.3 |
| 20260507075949 | 79 | 332 | 30.0 | 35.0 | 0.00 | 0.00 | 0.00 | 36 | 1012.1 |
| 20260507075446 | 78 | 1 | 31.0 | 35.0 | 0.00 | 0.00 | 0.00 | 35 | 1012.4 |
| 20260507074942 | 78 | 338 | 29.0 | 33.0 | 0.00 | 0.00 | 0.00 | 37 | 1012.1 |
| 20260507074439 | 78 | 343 | 26.0 | 31.0 | 0.00 | 0.00 | 0.00 | 37 | 1012.3 |
| 20260507073937 | 78 | 337 | 31.0 | 36.0 | 0.00 | 0.00 | 0.00 | 38 | 1012.0 |
| 20260507073433 | 78 | 350 | 29.0 | 34.0 | 0.00 | 0.00 | 0.00 | 39 | 1012.3 |
| 20260507072930 | 77 | 332 | 33.0 | 36.0 | 0.00 | 0.00 | 0.00 | 38 | 1012.2 |
| 20260507072428 | 77 | 332 | 25.0 | 27.0 | 0.00 | 0.00 | 0.00 | 40 | 1012.5 |
| 20260507071925 | 77 | 22 | 23.0 | 29.0 | 0.00 | 0.00 | 0.00 | 41 | 1012.2 |
| 20260507071422 | 77 | 337 | 23.0 | 34.0 | 0.00 | 0.00 | 0.00 | 43 | 1012.5 |
| 20260507070918 | 77 | 9 | 29.0 | 32.0 | 0.00 | 0.00 | 0.00 | 44 | 1012.4 |
| 20260507070416 | 76 | 345 | 23.0 | 24.0 | 0.00 | 0.00 | 0.00 | 45 | 1012.4 |
| 20260507065912 | 76 | 347 | 28.0 | 30.0 | 0.00 | 0.00 | 0.00 | 46 | 1012.4 |
| 20260507065409 | 75 | 350 | 27.0 | 32.0 | 0.00 | 0.00 | 0.00 | 48 | 1012.4 |
| 20260507064906 | 75 | 355 | 30.0 | 33.0 | 0.00 | 0.00 | 0.00 | 46 | 1012.3 |
| 20260507064404 | 75 | 343 | 32.0 | 35.0 | 0.00 | 0.00 | 0.00 | 46 | 1012.2 |
| 20260507063902 | 75 | 343 | 32.0 | 35.0 | 0.00 | 0.00 | 0.00 | 46 | 1012.3 |
| 20260507063359 | 75 | 348 | 31.0 | 34.0 | 0.00 | 0.00 | 0.00 | 49 | 1012.0 |
| 20260507062856 | 74 | 338 | 32.0 | 36.0 | 0.00 | 0.00 | 0.00 | 50 | 1012.1 |
| 20260507062352 | 74 | 338 | 32.0 | 36.0 | 0.00 | 0.00 | 0.00 | 50 | 1012.0 |
| 20260507061850 | 74 | 348 | 34.0 | 35.0 | 0.00 | 0.00 | 0.00 | 49 | 1011.9 |
| 20260507061348 | 73 | 337 | 32.0 | 35.0 | 0.00 | 0.00 | 0.00 | 50 | 1012.0 |
| 20260507060846 | 73 | 335 | 31.0 | 34.0 | 0.00 | 0.00 | 0.00 | 51 | 1012.0 |
| 20260507060343 | 73 | 350 | 35.0 | 38.0 | 0.00 | 0.00 | 0.00 | 51 | 1012.0 |
| 20260507055840 | 73 | 349 | 29.0 | 38.0 | 0.00 | 0.00 | 0.00 | 52 | 1012.0 |
| 20260507055335 | 73 | 341 | 34.0 | 36.0 | 0.00 | 0.00 | 0.00 | 53 | 1011.9 |
| 20260507054832 | 72 | 337 | 35.0 | 40.0 | 0.00 | 0.00 | 0.00 | 52 | 1012.0 |
| 20260507054328 | 72 | 338 | 34.0 | 39.0 | 0.00 | 0.00 | 0.00 | 52 | 1012.0 |
| 20260507053825 | 72 | 3 | 32.0 | 39.0 | 0.00 | 0.00 | 0.00 | 54 | 1012.0 |
| 20260507053323 | 72 | 347 | 34.0 | 38.0 | 0.00 | 0.00 | 0.00 | 53 | 1012.1 |
| 20260507052822 | 72 | 345 | 32.0 | 36.0 | 0.00 | 0.00 | 0.00 | 53 | 1012.0 |
| 20260507052318 | 72 | 327 | 29.0 | 35.0 | 0.00 | 0.00 | 0.00 | 53 | 1011.9 |
| 20260507051816 | 71 | 343 | 33.0 | 35.0 | 0.00 | 0.00 | 0.00 | 55 | 1011.7 |
| 20260507051313 | 71 | 347 | 28.0 | 32.0 | 0.00 | 0.00 | 0.00 | 56 | 1012.0 |
| 20260507050809 | 71 | 346 | 36.0 | 42.0 | 0.00 | 0.00 | 0.00 | 55 | 1011.5 |
| 20260507050306 | 71 | 334 | 30.0 | 38.0 | 0.00 | 0.00 | 0.00 | 56 | 1011.8 |
| 20260507045803 | 71 | 343 | 32.0 | 35.0 | 0.00 | 0.00 | 0.00 | 56 | 1011.5 |
| 20260507045259 | 71 | 329 | 37.0 | 41.0 | 0.00 | 0.00 | 0.00 | 56 | 1011.5 |
| 20260507044757 | 71 | 344 | 33.0 | 38.0 | 0.00 | 0.00 | 0.00 | 56 | 1011.4 |
| 20260507044253 | 71 | 335 | 31.0 | 35.0 | 0.00 | 0.00 | 0.00 | 56 | 1011.2 |
| 20260507043749 | 70 | 344 | 29.0 | 36.0 | 0.00 | 0.00 | 0.00 | 57 | 1011.5 |
| 20260507043246 | 70 | 340 | 33.0 | 36.0 | 0.00 | 0.00 | 0.00 | 58 | 1011.5 |
| 20260507042742 | 70 | 342 | 32.0 | 41.0 | 0.00 | 0.00 | 0.00 | 57 | 1011.4 |
| 20260507042237 | 70 | 332 | 36.0 | 41.0 | 0.00 | 0.00 | 0.00 | 57 | 1011.2 |
| 20260507041735 | 70 | 343 | 29.0 | 38.0 | 0.00 | 0.00 | 0.00 | 57 | 1011.2 |
| 20260507041232 | 70 | 347 | 30.0 | 34.0 | 0.00 | 0.00 | 0.00 | 55 | 1011.1 |
| 20260507040729 | 70 | 329 | 27.0 | 34.0 | 0.00 | 0.00 | 0.00 | 57 | 1011.3 |
| 20260507040225 | 70 | 349 | 30.0 | 33.0 | 0.00 | 0.00 | 0.00 | 57 | 1010.8 |
| 20260507035721 | 69 | 345 | 34.0 | 39.0 | 0.00 | 0.00 | 0.00 | 57 | 1011.0 |
| 20260507035216 | 69 | 359 | 31.0 | 33.0 | 0.00 | 0.00 | 0.00 | 58 | 1011.0 |
| 20260507034714 | 69 | 349 | 24.0 | 34.0 | 0.00 | 0.00 | 0.00 | 59 | 1011.1 |
| 20260507034211 | 69 | 347 | 29.0 | 33.0 | 0.00 | 0.00 | 0.00 | 58 | 1011.0 |
| 20260507033709 | 69 | 329 | 26.0 | 30.0 | 0.00 | 0.00 | 0.00 | 60 | 1011.0 |
| 20260507033206 | 69 | 335 | 30.0 | 33.0 | 0.00 | 0.00 | 0.00 | 59 | 1011.0 |
| 20260507032704 | 69 | 341 | 27.0 | 32.0 | 0.00 | 0.00 | 0.00 | 60 | 1010.7 |
| 20260507032159 | 69 | 346 | 32.0 | 36.0 | 0.00 | 0.00 | 0.00 | 61 | 1010.6 |
| 20260507031656 | 69 | 343 | 34.0 | 40.0 | 0.00 | 0.00 | 0.00 | 61 | 1010.5 |
| 20260507031153 | 69 | 342 | 31.0 | 34.0 | 0.00 | 0.00 | 0.00 | 61 | 1010.5 |
| 20260507030650 | 69 | 349 | 34.0 | 38.0 | 0.00 | 0.00 | 0.00 | 60 | 1010.5 |
| 20260507030148 | 69 | 352 | 34.0 | 46.0 | 0.00 | 0.00 | 0.00 | 60 | 1010.5 |
| 20260507025644 | 69 | 12 | 32.0 | 41.0 | 0.00 | 0.00 | 0.00 | 60 | 1010.4 |
| 20260507025142 | 69 | 337 | 34.0 | 39.0 | 0.00 | 0.00 | 0.00 | 59 | 1010.4 |
| 20260507024640 | 69 | 347 | 38.0 | 42.0 | 0.00 | 0.00 | 0.00 | 59 | 1010.4 |
| 20260507024137 | 69 | 349 | 31.0 | 41.0 | 0.00 | 0.00 | 0.00 | 60 | 1010.2 |
| 20260507023632 | 69 | 352 | 40.0 | 43.0 | 0.00 | 0.00 | 0.00 | 60 | 1010.2 |
| 20260507023130 | 69 | 350 | 34.0 | 39.0 | 0.00 | 0.00 | 0.00 | 60 | 1010.3 |
| 20260507022626 | 69 | 346 | 31.0 | 35.0 | 0.00 | 0.00 | 0.00 | 60 | 1010.3 |
| 20260507022121 | 69 | 337 | 34.0 | 38.0 | 0.00 | 0.00 | 0.00 | 59 | 1010.1 |
| 20260507021618 | 69 | 343 | 32.0 | 36.0 | 0.00 | 0.00 | 0.00 | 59 | 1010.2 |
| 20260507021114 | 69 | 329 | 29.0 | 41.0 | 0.00 | 0.00 | 0.00 | 59 | 1010.1 |
| 20260507020613 | 69 | 356 | 33.0 | 40.0 | 0.00 | 0.00 | 0.00 | 57 | 1010.4 |
| 20260507020108 | 69 | 346 | 29.0 | 34.0 | 0.00 | 0.00 | 0.00 | 58 | 1010.1 |
| 20260507015607 | 69 | 353 | 32.0 | 38.0 | 0.00 | 0.00 | 0.00 | 58 | 1009.9 |
| 20260507015104 | 70 | 321 | 33.0 | 42.0 | 0.00 | 0.00 | 0.00 | 57 | 1010.3 |
| 20260507014601 | 70 | 327 | 29.0 | 34.0 | 0.00 | 0.00 | 0.00 | 58 | 1010.1 |
| 20260507014056 | 70 | 335 | 30.0 | 36.0 | 0.00 | 0.00 | 0.00 | 57 | 1010.4 |
| 20260507013553 | 70 | 345 | 34.0 | 36.0 | 0.00 | 0.00 | 0.00 | 57 | 1010.2 |
| 20260507013050 | 70 | 345 | 33.0 | 36.0 | 0.00 | 0.00 | 0.00 | 55 | 1010.1 |
| 20260507012548 | 70 | 331 | 31.0 | 39.0 | 0.00 | 0.00 | 0.00 | 56 | 1010.2 |
| 20260507012043 | 70 | 347 | 34.0 | 40.0 | 0.00 | 0.00 | 0.00 | 56 | 1010.2 |
| 20260507011542 | 70 | 338 | 29.0 | 34.0 | 0.00 | 0.00 | 0.00 | 56 | 1010.2 |
| 20260507011037 | 70 | 330 | 29.0 | 36.0 | 0.00 | 0.00 | 0.00 | 55 | 1010.0 |
| 20260507010532 | 70 | 340 | 34.0 | 38.0 | 0.00 | 0.00 | 0.00 | 55 | 1010.1 |
| 20260507010029 | 70 | 351 | 32.0 | 38.0 | 0.00 | 0.00 | 0.00 | 56 | 1010.0 |
| 20260507005526 | 70 | 339 | 31.0 | 39.0 | 0.00 | 0.00 | 0.00 | 53 | 1010.0 |
| 20260507005022 | 71 | 5 | 24.0 | 32.0 | 0.00 | 0.00 | 0.00 | 55 | 1010.2 |
| 20260507004519 | 70 | 344 | 28.0 | 33.0 | 0.00 | 0.00 | 0.00 | 54 | 1010.1 |
| 20260507004017 | 70 | 354 | 34.0 | 35.0 | 0.00 | 0.00 | 0.00 | 55 | 1010.1 |
| 20260507003512 | 71 | 339 | 29.0 | 32.0 | 0.00 | 0.00 | 0.00 | 55 | 1010.1 |
| 20260507003007 | 71 | 342 | 32.0 | 35.0 | 0.00 | 0.00 | 0.00 | 55 | 1010.2 |
| 20260507002504 | 71 | 321 | 33.0 | 34.0 | 0.00 | 0.00 | 0.00 | 54 | 1010.1 |
| 20260507002000 | 71 | 354 | 29.0 | 38.0 | 0.00 | 0.00 | 0.00 | 54 | 1010.0 |
| 20260507001457 | 71 | 347 | 28.0 | 32.0 | 0.00 | 0.00 | 0.00 | 54 | 1010.3 |
| 20260507000954 | 71 | 317 | 28.0 | 38.0 | 0.00 | 0.00 | 0.00 | 54 | 1010.1 |
| 20260507000450 | 71 | 350 | 28.0 | 33.0 | 0.00 | 0.00 | 0.00 | 54 | 1010.4 |
| 20260506235946 | 71 | 348 | 24.0 | 31.0 | 0.00 | 0.00 | 0.00 | 53 | 1010.4 |
| 20260506235444 | 71 | 325 | 28.0 | 33.0 | 0.00 | 0.00 | 0.00 | 53 | 1010.6 |
| 20260506234939 | 71 | 340 | 30.0 | 39.0 | 0.00 | 0.00 | 0.00 | 52 | 1010.7 |
| 20260506234437 | 71 | 339 | 28.0 | 39.0 | 0.00 | 0.00 | 0.00 | 51 | 1010.6 |
| 20260506233934 | 72 | 348 | 28.0 | 34.0 | 0.00 | 0.00 | 0.00 | 52 | 1010.7 |
| 20260506233431 | 72 | 340 | 30.0 | 34.0 | 0.00 | 0.00 | 0.00 | 51 | 1010.6 |
| 20260506232927 | 72 | 348 | 30.0 | 35.0 | 0.00 | 0.00 | 0.00 | 52 | 1010.9 |
| 20260506232423 | 72 | 325 | 30.0 | 36.0 | 0.00 | 0.00 | 0.00 | 52 | 1010.5 |
| 20260506231919 | 72 | 346 | 30.0 | 33.0 | 0.00 | 0.00 | 0.00 | 51 | 1010.8 |
| 20260506231417 | 72 | 315 | 29.0 | 36.0 | 0.00 | 0.00 | 0.00 | 51 | 1010.5 |
| 20260506230914 | 73 | 346 | 29.0 | 32.0 | 0.00 | 0.00 | 0.00 | 50 | 1010.7 |
| 20260506230411 | 73 | 340 | 24.0 | 27.0 | 0.00 | 0.00 | 0.00 | 50 | 1010.7 |
| 20260506225907 | 73 | 333 | 26.0 | 38.0 | 0.00 | 0.00 | 0.00 | 50 | 1011.1 |
| 20260506225404 | 73 | 346 | 22.0 | 32.0 | 0.00 | 0.00 | 0.00 | 49 | 1010.9 |
| 20260506224901 | 73 | 334 | 25.0 | 31.0 | 0.00 | 0.00 | 0.00 | 50 | 1011.0 |
| 20260506224359 | 73 | 346 | 35.0 | 39.0 | 0.00 | 0.00 | 0.00 | 49 | 1010.6 |
| 20260506223855 | 73 | 345 | 38.0 | 42.0 | 0.00 | 0.00 | 0.00 | 48 | 1010.6 |
| 20260506223350 | 73 | 355 | 30.0 | 32.0 | 0.00 | 0.00 | 0.00 | 49 | 1011.0 |
| 20260506222847 | 73 | 332 | 30.0 | 36.0 | 0.00 | 0.00 | 0.00 | 47 | 1011.0 |
| 20260506222343 | 73 | 345 | 31.0 | 34.0 | 0.00 | 0.00 | 0.00 | 47 | 1011.0 |
| 20260506221841 | 73 | 354 | 31.0 | 35.0 | 0.00 | 0.00 | 0.00 | 47 | 1010.9 |
| 20260506221338 | 74 | 341 | 33.0 | 35.0 | 0.00 | 0.00 | 0.00 | 48 | 1010.8 |
| 20260506220836 | 74 | 356 | 30.0 | 35.0 | 0.00 | 0.00 | 0.00 | 46 | 1011.1 |
| 20260506220331 | 74 | 340 | 32.0 | 36.0 | 0.00 | 0.00 | 0.00 | 46 | 1011.2 |
| 20260506215828 | 74 | 335 | 31.0 | 35.0 | 0.00 | 0.00 | 0.00 | 45 | 1011.0 |
| 20260506215324 | 75 | 352 | 30.0 | 38.0 | 0.00 | 0.00 | 0.00 | 45 | 1011.1 |
| 20260506214820 | 75 | 355 | 29.0 | 33.0 | 0.00 | 0.00 | 0.00 | 45 | 1011.3 |
| 20260506214317 | 75 | 345 | 31.0 | 34.0 | 0.00 | 0.00 | 0.00 | 45 | 1011.4 |
| 20260506213815 | 75 | 346 | 28.0 | 32.0 | 0.00 | 0.00 | 0.00 | 44 | 1011.1 |
| 20260506213312 | 75 | 342 | 24.0 | 34.0 | 0.00 | 0.00 | 0.00 | 43 | 1011.6 |
| 20260506212810 | 75 | 345 | 24.0 | 34.0 | 0.00 | 0.00 | 0.00 | 41 | 1011.2 |
| 20260506212306 | 75 | 354 | 29.0 | 33.0 | 0.00 | 0.00 | 0.00 | 41 | 1011.5 |
| 20260506211800 | 75 | 344 | 25.0 | 32.0 | 0.00 | 0.00 | 0.00 | 41 | 1011.3 |
| 20260506211257 | 75 | 340 | 30.0 | 33.0 | 0.00 | 0.00 | 0.00 | 42 | 1011.3 |
| 20260506210754 | 75 | 356 | 22.0 | 27.0 | 0.00 | 0.00 | 0.00 | 43 | 1011.3 |
| 20260506210250 | 75 | 342 | 28.0 | 30.0 | 0.00 | 0.00 | 0.00 | 43 | 1011.7 |
| 20260506205748 | 76 | 340 | 24.0 | 30.0 | 0.00 | 0.00 | 0.00 | 42 | 1011.4 |
| 20260506205243 | 76 | 352 | 24.0 | 27.0 | 0.00 | 0.00 | 0.00 | 42 | 1011.4 |
| 20260506204740 | 76 | 344 | 28.0 | 33.0 | 0.00 | 0.00 | 0.00 | 42 | 1011.6 |
| 20260506204238 | 76 | 342 | 26.0 | 33.0 | 0.00 | 0.00 | 0.00 | 42 | 1011.6 |
| 20260506203736 | 76 | 336 | 27.0 | 31.0 | 0.00 | 0.00 | 0.00 | 42 | 1011.7 |
| 20260506203232 | 76 | 333 | 26.0 | 31.0 | 0.00 | 0.00 | 0.00 | 43 | 1011.7 |
| 20260506202730 | 76 | 344 | 26.0 | 30.0 | 0.00 | 0.00 | 0.00 | 43 | 1011.8 |
| 20260506202226 | 76 | 336 | 30.0 | 34.0 | 0.00 | 0.00 | 0.00 | 42 | 1011.6 |
| 20260506201723 | 76 | 353 | 31.0 | 34.0 | 0.00 | 0.00 | 0.00 | 42 | 1011.7 |
| 20260506201221 | 76 | 336 | 25.0 | 30.0 | 0.00 | 0.00 | 0.00 | 43 | 1011.4 |
| 20260506200718 | 76 | 339 | 30.0 | 32.0 | 0.00 | 0.00 | 0.00 | 43 | 1011.3 |
| 20260506200214 | 77 | 337 | 28.0 | 33.0 | 0.00 | 0.00 | 0.00 | 44 | 1011.4 |
| 20260506195710 | 77 | 338 | 28.0 | 34.0 | 0.00 | 0.00 | 0.00 | 43 | 1011.4 |
| 20260506195207 | 77 | 344 | 27.0 | 35.0 | 0.00 | 0.00 | 0.00 | 42 | 1011.2 |
| 20260506194704 | 77 | 341 | 25.0 | 34.0 | 0.00 | 0.00 | 0.00 | 41 | 1011.1 |
| 20260506194200 | 77 | 352 | 31.0 | 34.0 | 0.00 | 0.00 | 0.00 | 40 | 1011.1 |
| 20260506193658 | 77 | 352 | 27.0 | 30.0 | 0.00 | 0.00 | 0.00 | 39 | 1011.0 |
| 20260506193155 | 78 | 353 | 26.0 | 30.0 | 0.00 | 0.00 | 0.00 | 38 | 1011.0 |
| 20260506192652 | 78 | 346 | 29.0 | 33.0 | 0.00 | 0.00 | 0.00 | 37 | 1011.1 |
| 20260506192148 | 78 | 341 | 27.0 | 32.0 | 0.00 | 0.00 | 0.00 | 38 | 1011.0 |
| 20260506191645 | 78 | 341 | 24.0 | 32.0 | 0.00 | 0.00 | 0.00 | 38 | 1011.0 |
| 20260506191141 | 78 | 347 | 26.0 | 31.0 | 0.00 | 0.00 | 0.00 | 38 | 1011.0 |
| 20260506190638 | 78 | 339 | 22.0 | 29.0 | 0.00 | 0.00 | 0.00 | 38 | 1010.9 |
| 20260506190135 | 78 | 347 | 23.0 | 27.0 | 0.00 | 0.00 | 0.00 | 36 | 1010.8 |
| 20260506185632 | 78 | 337 | 25.0 | 29.0 | 0.00 | 0.00 | 0.00 | 36 | 1010.5 |
| 20260506185128 | 78 | 350 | 24.0 | 29.0 | 0.00 | 0.00 | 0.00 | 36 | 1010.6 |
| 20260506184626 | 78 | 340 | 25.0 | 27.0 | 0.00 | 0.00 | 0.00 | 37 | 1010.7 |
| 20260506184123 | 78 | 342 | 23.0 | 26.0 | 0.00 | 0.00 | 0.00 | 38 | 1010.7 |
| 20260506183619 | 78 | 335 | 27.0 | 30.0 | 0.00 | 0.00 | 0.00 | 38 | 1010.6 |
| 20260506183115 | 78 | 343 | 22.0 | 27.0 | 0.00 | 0.00 | 0.00 | 38 | 1010.8 |
| 20260506182613 | 78 | 319 | 23.0 | 29.0 | 0.00 | 0.00 | 0.00 | 37 | 1010.5 |
| 20260506182110 | 78 | 346 | 19.0 | 27.0 | 0.00 | 0.00 | 0.00 | 37 | 1010.4 |
| 20260506181608 | 78 | 337 | 22.0 | 25.0 | 0.00 | 0.00 | 0.00 | 38 | 1010.7 |
| 20260506181105 | 77 | 339 | 21.0 | 25.0 | 0.00 | 0.00 | 0.00 | 38 | 1010.5 |
| 20260506180601 | 77 | 349 | 21.0 | 25.0 | 0.00 | 0.00 | 0.00 | 38 | 1010.6 |
| 20260506180058 | 77 | 340 | 17.0 | 21.0 | 0.00 | 0.00 | 0.00 | 39 | 1010.4 |
| 20260506175554 | 77 | 347 | 10.0 | 14.0 | 0.00 | 0.00 | 0.00 | 42 | 1010.6 |
| 20260506175050 | 78 | 339 | 14.0 | 19.0 | 0.00 | 0.00 | 0.00 | 40 | 1010.6 |
| 20260506174549 | 77 | 338 | 21.0 | 23.0 | 0.00 | 0.00 | 0.00 | 39 | 1010.5 |
| 20260506174045 | 78 | 325 | 9.0 | 10.0 | 0.00 | 0.00 | 0.00 | 39 | 1010.6 |
| 20260506173543 | 78 | 322 | 9.0 | 10.0 | 0.00 | 0.00 | 0.00 | 37 | 1010.7 |
| 20260506173039 | 78 | 338 | 12.0 | 17.0 | 0.00 | 0.00 | 0.00 | 35 | 1010.7 |
| 20260506172537 | 78 | 341 | 10.0 | 16.0 | 0.00 | 0.00 | 0.00 | 36 | 1010.6 |
| 20260506172033 | 78 | 281 | 5.0 | 8.0 | 0.00 | 0.00 | 0.00 | 35 | 1010.4 |
| 20260506171531 | 76 | 294 | 8.0 | 14.0 | 0.00 | 0.00 | 0.00 | 40 | 1010.7 |
| 20260506171028 | 76 | 320 | 9.0 | 11.0 | 0.00 | 0.00 | 0.00 | 48 | 1010.5 |
| 20260506170526 | 75 | 276 | 6.0 | 7.0 | 0.00 | 0.00 | 0.00 | 51 | 1010.7 |
| 20260506170023 | 75 | 292 | 5.0 | 7.0 | 0.00 | 0.00 | 0.00 | 54 | 1010.8 |
| 20260506165522 | 75 | 280 | 6.0 | 7.0 | 0.00 | 0.00 | 0.00 | 54 | 1010.7 |
| 20260506165017 | 75 | 284 | 7.0 | 8.0 | 0.00 | 0.00 | 0.00 | 55 | 1010.7 |
| 20260506164514 | 75 | 274 | 5.0 | 9.0 | 0.00 | 0.00 | 0.00 | 55 | 1010.7 |
| 20260506164012 | 76 | 268 | 5.0 | 7.0 | 0.00 | 0.00 | 0.00 | 56 | 1010.8 |
| 20260506163507 | 76 | 275 | 6.0 | 8.0 | 0.00 | 0.00 | 0.00 | 54 | 1010.7 |
| 20260506163002 | 76 | 269 | 7.0 | 7.0 | 0.00 | 0.00 | 0.00 | 52 | 1010.7 |
| 20260506162500 | 76 | 275 | 7.0 | 9.0 | 0.00 | 0.00 | 0.00 | 51 | 1010.8 |
| 20260506161956 | 76 | 279 | 5.0 | 8.0 | 0.00 | 0.00 | 0.00 | 49 | 1010.9 |
| 20260506161454 | 76 | 285 | 7.0 | 8.0 | 0.00 | 0.00 | 0.00 | 50 | 1010.7 |
| 20260506160952 | 77 | 289 | 6.0 | 9.0 | 0.00 | 0.00 | 0.00 | 49 | 1010.7 |
| 20260506160449 | 77 | 283 | 8.0 | 9.0 | 0.00 | 0.00 | 0.00 | 49 | 1010.6 |
| 20260506155946 | 77 | 331 | 6.0 | 9.0 | 0.00 | 0.00 | 0.00 | 49 | 1010.8 |
| 20260506155444 | 78 | 276 | 6.0 | 9.0 | 0.00 | 0.00 | 0.00 | 47 | 1010.5 |
| 20260506153610 | 79 | 289 | 5.0 | 9.0 | 0.00 | 0.00 | 0.00 | 41 | 1010.5 |
| 20260506153108 | 79 | 293 | 8.0 | 9.0 | 0.00 | 0.00 | 0.00 | 40 | 1010.8 |
| 20260506152605 | 79 | 315 | 8.0 | 9.0 | 0.00 | 0.00 | 0.00 | 38 | 1010.7 |
| 20260506152103 | 80 | 281 | 10.0 | 11.0 | 0.00 | 0.00 | 0.00 | 37 | 1010.7 |
| 20260506151600 | 80 | 295 | 6.0 | 8.0 | 0.00 | 0.00 | 0.00 | 39 | 1010.8 |
| 20260506151057 | 79 | 305 | 10.0 | 11.0 | 0.00 | 0.00 | 0.00 | 35 | 1010.5 |
| 20260506150554 | 79 | 332 | 10.0 | 11.0 | 0.00 | 0.00 | 0.00 | 38 | 1010.5 |
| 20260506150051 | 80 | 328 | 13.0 | 14.0 | 0.00 | 0.00 | 0.00 | 37 | 1011.0 |
| 20260506145547 | 79 | 314 | 11.0 | 13.0 | 0.00 | 0.00 | 0.00 | 38 | 1010.9 |
| 20260506145045 | 80 | 307 | 9.0 | 11.0 | 0.00 | 0.00 | 0.00 | 39 | 1010.7 |
| 20260506144541 | 80 | 307 | 9.0 | 11.0 | 0.00 | 0.00 | 0.00 | 39 | 1010.7 |
| 20260506144039 | 80 | 337 | 9.0 | 14.0 | 0.00 | 0.00 | 0.00 | 38 | 1010.9 |
| 20260506143536 | 80 | 319 | 10.0 | 13.0 | 0.00 | 0.00 | 0.00 | 35 | 1010.9 |